Takamine — 7JKK — position and weather

sailwx.info

Track history (hours):
 
Tides and Currents Weather Stations Pressure Air Temp Water Temp Dewpoint Dewpoint Depression Visibility Wind Speed Wind Dir Waves Ship Positions

Takamine

Last reported at 2016-Jul-26 04:27 UTC. Time now 2016-Jul-30 20:45 UTC.
Position N 34°60' E 139°40'.

Length 333 m; draft 10.2 m.

Type: Ship (hazmat cat A). MMSI: 432832000.

Date/timePositionNaut miles runAvg speedWind from/ knotsBaromVisibWave heightAir tempDewpointWater temp
2016-Jul-26 04:27N 34°60' E 139°40'1213.6
2016-Jul-26 03:33N 35°11' E 139°46'1111.3
2016-Jul-26 02:33N 35°22' E 139°42'1212.0
2016-Jul-26 01:33N 35°30' E 139°53'2 2.5
2016-Jul-26 00:33N 35°31' E 139°56'0 0.0
2016-Jul-25 23:33N 35°31' E 139°56'0 0.0
2016-Jul-25 22:33N 35°31' E 139°56'0 0.0
2016-Jul-25 21:33N 35°31' E 139°56'0 0.0
2016-Jul-25 20:33N 35°31' E 139°56'0 0.0
2016-Jul-25 19:33N 35°31' E 139°56'0 0.0
2016-Jul-25 18:33N 35°31' E 139°56'0 0.0
2016-Jul-25 17:33N 35°31' E 139°56'0 0.0
2016-Jul-25 16:33N 35°31' E 139°56'0 0.0
2016-Jul-25 15:33N 35°31' E 139°56'0 0.0
2016-Jul-25 14:33N 35°31' E 139°56'0 0.0
2016-Jul-25 13:33N 35°31' E 139°56'0 0.0
2016-Jul-25 12:33N 35°31' E 139°56'0 0.0
2016-Jul-25 11:33N 35°31' E 139°56'0 0.0
2016-Jul-25 10:33N 35°31' E 139°56'0 0.0
2016-Jul-25 09:33N 35°31' E 139°56'0 0.0
2016-Jul-25 08:33N 35°31' E 139°56'0 0.0
2016-Jul-25 07:33N 35°31' E 139°56'0 0.0
2016-Jul-25 06:33N 35°31' E 139°56'0 0.0
2016-Jul-25 05:33N 35°31' E 139°56'0 0.0
2016-Jul-25 04:33N 35°31' E 139°56'0 0.0
2016-Jul-25 03:33N 35°31' E 139°56'0 0.0
2016-Jul-25 02:33N 35°31' E 139°56'0 0.0
2016-Jul-25 01:33N 35°31' E 139°56'0 0.0
2016-Jul-25 00:33N 35°31' E 139°56'0 0.0
2016-Jul-24 23:33N 35°31' E 139°56'0 0.0
2016-Jul-24 22:33N 35°31' E 139°56'0 0.0
2016-Jul-24 21:34N 35°31' E 139°56'0 0.0
2016-Jul-24 20:33N 35°31' E 139°56'0 0.0
2016-Jul-24 19:33N 35°31' E 139°56'0 0.0
2016-Jul-24 18:33N 35°31' E 139°56'0 0.0
2016-Jul-24 17:33N 35°31' E 139°56'0 0.0
2016-Jul-24 16:33N 35°31' E 139°56'0 0.0
2016-Jul-24 15:33N 35°31' E 139°56'0 0.0
2016-Jul-24 14:33N 35°31' E 139°56'0 0.0
2016-Jul-24 13:33N 35°31' E 139°56'0 0.0
2016-Jul-24 12:33N 35°31' E 139°56'0 0.0
2016-Jul-24 11:33N 35°31' E 139°56'0 0.0
2016-Jul-24 10:33N 35°31' E 139°56'0 0.0
2016-Jul-24 09:34N 35°31' E 139°56'0 0.0
2016-Jul-24 08:33N 35°31' E 139°56'0 0.0
2016-Jul-24 07:34N 35°31' E 139°56'0 0.0
2016-Jul-24 06:33N 35°31' E 139°56'0 0.0
2016-Jul-24 05:33N 35°31' E 139°56'0 0.0
2016-Jul-24 04:33N 35°31' E 139°56'0 0.0
2016-Jul-24 03:33N 35°31' E 139°56'0 0.0
2016-Jul-24 02:33N 35°31' E 139°56'0 0.0
2016-Jul-24 01:33N 35°31' E 139°56'0 0.0
2016-Jul-24 00:33N 35°31' E 139°56'1 0.7
2016-Jul-23 23:33N 35°30' E 139°56'5 5.2
2016-Jul-23 22:33N 35°27' E 139°50'1110.8
2016-Jul-23 21:33N 35°18' E 139°45'10 9.8
2016-Jul-23 20:33N 35°08' E 139°46'8 8.1
2016-Jul-23 19:33N 35°00' E 139°42'1110.5
2016-Jul-23 18:33N 34°50' E 139°39'  
Track history (hours):
 
Tides and Currents Weather Stations Pressure Air Temp Water Temp Dewpoint Dewpoint Depression Visibility Wind Speed Wind Dir Waves Ship Positions

Takamine

Last reported at 2016-Jul-26 04:27 UTC. Time now 2016-Jul-30 20:45 UTC.
Position N 34°60' E 139°40'.

Length 333 m; draft 10.2 m.

Type: Ship (hazmat cat A). MMSI: 432832000.

Date/timePositionNaut miles runAvg speedWind from/ knotsBaromVisibWave heightAir tempDewpointWater temp
2016-Jul-26 04:27N 34°60' E 139°40'1213.6
2016-Jul-26 03:33N 35°11' E 139°46'1111.3
2016-Jul-26 02:33N 35°22' E 139°42'1212.0
2016-Jul-26 01:33N 35°30' E 139°53'2 2.5
2016-Jul-26 00:33N 35°31' E 139°56'0 0.0
2016-Jul-25 23:33N 35°31' E 139°56'0 0.0
2016-Jul-25 22:33N 35°31' E 139°56'0 0.0
2016-Jul-25 21:33N 35°31' E 139°56'0 0.0
2016-Jul-25 20:33N 35°31' E 139°56'0 0.0
2016-Jul-25 19:33N 35°31' E 139°56'0 0.0
2016-Jul-25 18:33N 35°31' E 139°56'0 0.0
2016-Jul-25 17:33N 35°31' E 139°56'0 0.0
2016-Jul-25 16:33N 35°31' E 139°56'0 0.0
2016-Jul-25 15:33N 35°31' E 139°56'0 0.0
2016-Jul-25 14:33N 35°31' E 139°56'0 0.0
2016-Jul-25 13:33N 35°31' E 139°56'0 0.0
2016-Jul-25 12:33N 35°31' E 139°56'0 0.0
2016-Jul-25 11:33N 35°31' E 139°56'0 0.0
2016-Jul-25 10:33N 35°31' E 139°56'0 0.0
2016-Jul-25 09:33N 35°31' E 139°56'0 0.0
2016-Jul-25 08:33N 35°31' E 139°56'0 0.0
2016-Jul-25 07:33N 35°31' E 139°56'0 0.0
2016-Jul-25 06:33N 35°31' E 139°56'0 0.0
2016-Jul-25 05:33N 35°31' E 139°56'0 0.0
2016-Jul-25 04:33N 35°31' E 139°56'0 0.0
2016-Jul-25 03:33N 35°31' E 139°56'0 0.0
2016-Jul-25 02:33N 35°31' E 139°56'0 0.0
2016-Jul-25 01:33N 35°31' E 139°56'0 0.0
2016-Jul-25 00:33N 35°31' E 139°56'0 0.0
2016-Jul-24 23:33N 35°31' E 139°56'0 0.0
2016-Jul-24 22:33N 35°31' E 139°56'0 0.0
2016-Jul-24 21:34N 35°31' E 139°56'0 0.0
2016-Jul-24 20:33N 35°31' E 139°56'0 0.0
2016-Jul-24 19:33N 35°31' E 139°56'0 0.0
2016-Jul-24 18:33N 35°31' E 139°56'0 0.0
2016-Jul-24 17:33N 35°31' E 139°56'0 0.0
2016-Jul-24 16:33N 35°31' E 139°56'0 0.0
2016-Jul-24 15:33N 35°31' E 139°56'0 0.0
2016-Jul-24 14:33N 35°31' E 139°56'0 0.0
2016-Jul-24 13:33N 35°31' E 139°56'0 0.0
2016-Jul-24 12:33N 35°31' E 139°56'0 0.0
2016-Jul-24 11:33N 35°31' E 139°56'0 0.0
2016-Jul-24 10:33N 35°31' E 139°56'0 0.0
2016-Jul-24 09:34N 35°31' E 139°56'0 0.0
2016-Jul-24 08:33N 35°31' E 139°56'0 0.0
2016-Jul-24 07:34N 35°31' E 139°56'0 0.0
2016-Jul-24 06:33N 35°31' E 139°56'0 0.0
2016-Jul-24 05:33N 35°31' E 139°56'0 0.0
2016-Jul-24 04:33N 35°31' E 139°56'0 0.0
2016-Jul-24 03:33N 35°31' E 139°56'0 0.0
2016-Jul-24 02:33N 35°31' E 139°56'0 0.0
2016-Jul-24 01:33N 35°31' E 139°56'0 0.0
2016-Jul-24 00:33N 35°31' E 139°56'1 0.7
2016-Jul-23 23:33N 35°30' E 139°56'5 5.2
2016-Jul-23 22:33N 35°27' E 139°50'1110.8
2016-Jul-23 21:33N 35°18' E 139°45'10 9.8
2016-Jul-23 20:33N 35°08' E 139°46'8 8.1
2016-Jul-23 19:33N 35°00' E 139°42'1110.5
2016-Jul-23 18:33N 34°50' E 139°39'  

Dump ship's entire track history